Search for airport 
image banner adimage banner adimage banner ad
image banner ad

KCRQ - Mc Clellan-Palomar

Located in Carlsbad, United States

ICAO - CRQ, IATA - CLD

Data provided by Airmate  

General information

Coordinates: N33°7'42" W117°16'48"
Elevation is 331 feet MSL.
Magnetic variation is 14° East
View others Airports in California

Operational data

Special qualification required
Current time UTC:
Current local time:
Weather
METAR: KCRQ 211853Z 26005KT 10SM CLR 29/14 A3004 RMK AO2 SLP169 T02890144
TAF: KCRQ 211720Z 2118/2218 VRB04KT P6SM FEW010 FM212000 26008KT P6SM SKC FM220200 VRB04KT P6SM SKC
View NOTAMs / SUP AIP / TFR affecting this airport [VIEW]
Communications frequencies: [VIEW]

Runways:

RWY identifierQFULength (ft)Width (ft)SurfaceLDA (ft)
0679°4897150ASPH4600
24259°4897150ASPH4897

Airport contact information

Address: Carlsbad United States

Other aviation service providers

Flight schools

Pinnacle Aviation Academy

Pinnacle Aviation Academy

Civic Helicopters, Inc.

Civic Helicopters, Inc.

Pacific Coast Flyers

Pacific Coast Flyers
info@pcflyers.org+1(760)845-9713

Loft

Loft
info@loft.aero+1(760)476-0890

Plus One Flyers - Crq

Plus One Flyers - Crq

Atp Flight School (800-All-Atps)

Atp Flight School (800-All-Atps)
info@allatps.com+1(800)255-2877

Blade & Wing Aviation

Blade & Wing Aviation

Satellite view of KCRQ